Terminal Aerodrome Forecast
Issued by NWS Wilmington, NC

Current Version | Previous Version | Graphics & Text | Print | Product List | Glossary Off
Versions: 1 2 3 4 5 6 7 8 9 10 11 12 13 14 15 16 17 18 19 20 21 22

000
FTUS42 KILM 161100
TAFILM
TAF
KILM 161120Z 1612/1712 00000KT P6SM VCSH FEW003 SCT023 BKN080
     FM161500 04004KT P6SM BKN020 BKN100
     FM161800 14006KT P6SM VCSH SCT035 BKN250
     FM170800 03004KT 4SM BR BKN010=

USA.gov is the U.S. government's official web portal to all federal, state and local government web resources and services.